Warton, United Kingdom
Current Conditions -  °F | °C
As of 3:20 AM on Tuesday 21 Oct 2014 (Local Time) from EGGP Reporting Station
Light Rain Light Rain  
Wind Chill: 55°   Ceiling: 3500
Heat Index: 55°   Visibility: 6mi
Dew Point: 52°   Wind: 20mph
Humidity: 88%   Direction: 190°S
Pressure: 29.44"   Gusts: NA
Location:  53.77°N, 2.88°W
Report Text: EGGP 210220Z 19017KT 9999 -RA FEW025 BKN035 13/11 Q0997
Loading
Personal Weather Stations






























Interactive Weather Map New forecast layout! Learn more

10-Day Weather Forecast

Advertisements
Track Severe Weather on mobile